createdAt,value
2022-08-04T00:00:27.515Z,0.20
2022-08-04T00:03:19.902Z,0.20
2022-08-04T00:06:03.750Z,0.50
2022-08-04T00:08:57.131Z,0.20
2022-08-04T00:11:30.612Z,0.55
2022-08-04T00:14:05.165Z,0.20
2022-08-04T00:16:38.322Z,0.22
2022-08-04T00:19:18.330Z,0.20
2022-08-04T00:21:52.650Z,0.20
2022-08-04T00:24:22.304Z,0.20
2022-08-04T00:26:49.227Z,0.20
2022-08-04T00:29:16.443Z,0.47
2022-08-04T00:31:56.085Z,0.20
2022-08-04T00:34:27.214Z,0.20
2022-08-04T00:36:55.562Z,0.20
2022-08-04T00:39:23.225Z,0.20
2022-08-04T00:42:11.295Z,0.20
2022-08-04T00:45:18.851Z,0.20
2022-08-04T00:48:02.618Z,0.20
2022-08-04T00:51:24.349Z,0.20
2022-08-04T00:54:26.653Z,0.20
2022-08-04T00:57:33.791Z,0.22
2022-08-04T01:00:13.869Z,0.20
2022-08-04T01:03:18.695Z,0.30
2022-08-04T01:05:57.811Z,0.20
2022-08-04T01:08:36.161Z,0.20
2022-08-04T01:11:24.740Z,0.20
2022-08-04T01:14:20.766Z,0.20
2022-08-04T01:16:58.357Z,0.52
2022-08-04T01:20:08.345Z,0.20
2022-08-04T01:22:50.735Z,0.20
2022-08-04T01:25:44.448Z,0.47
2022-08-04T01:28:41.122Z,0.20
2022-08-04T01:31:48.129Z,0.20
2022-08-04T01:34:17.191Z,0.20
2022-08-04T01:36:56.206Z,0.20
2022-08-04T01:39:41.544Z,0.20
2022-08-04T01:42:31.996Z,0.20
2022-08-04T01:45:05.642Z,0.20
2022-08-04T01:47:36.820Z,0.20
2022-08-04T01:50:14.015Z,0.20
2022-08-04T01:52:46.501Z,0.20
2022-08-04T01:55:18.131Z,0.20
2022-08-04T01:57:52.815Z,0.20
2022-08-04T02:00:28.832Z,0.20
2022-08-04T02:02:57.944Z,0.40
2022-08-04T02:05:27.031Z,0.20
2022-08-04T02:08:37.438Z,0.20
2022-08-04T02:11:22.837Z,0.20
2022-08-04T02:14:41.642Z,0.30
2022-08-04T02:17:40.529Z,0.30
2022-08-04T02:20:35.681Z,0.20
2022-08-04T02:23:08.518Z,0.20
2022-08-04T02:26:03.146Z,0.20
2022-08-04T02:29:00.842Z,0.20
2022-08-04T02:31:33.573Z,0.20
2022-08-04T02:34:14.029Z,0.40
2022-08-04T02:36:42.766Z,0.30
2022-08-04T02:39:12.577Z,0.25
2022-08-04T02:41:40.779Z,0.20
2022-08-04T02:44:10.367Z,0.20
2022-08-04T02:46:39.426Z,0.20
2022-08-04T02:49:10.920Z,0.20
2022-08-04T02:51:46.285Z,0.20
2022-08-04T02:54:31.637Z,0.20
2022-08-04T02:57:02.297Z,0.22
2022-08-04T03:00:01.666Z,0.20
2022-08-04T03:02:45.319Z,0.20
2022-08-04T03:05:23.833Z,0.20
2022-08-04T03:08:04.327Z,0.20
2022-08-04T03:11:32.067Z,0.22
2022-08-04T03:14:37.332Z,0.20
2022-08-04T03:17:32.153Z,0.30
2022-08-04T03:20:27.206Z,0.50
2022-08-04T03:23:35.619Z,0.30
2022-08-04T03:26:39.331Z,0.38
2022-08-04T03:29:47.567Z,0.20
2022-08-04T03:33:03.214Z,0.20
2022-08-04T03:36:05.432Z,0.20
2022-08-04T03:39:11.825Z,0.30
2022-08-04T03:42:12.121Z,0.20
2022-08-04T03:45:23.646Z,0.20
2022-08-04T03:48:29.402Z,0.20
2022-08-04T03:51:52.301Z,0.20
2022-08-04T03:54:51.387Z,0.38
2022-08-04T03:57:39.263Z,0.20
2022-08-04T04:00:20.923Z,0.10
2022-08-04T04:03:44.886Z,0.20
2022-08-04T04:07:26.542Z,0.17
2022-08-04T04:10:31.128Z,0.25
2022-08-04T04:13:33.371Z,0.17
2022-08-04T04:16:27.493Z,0.25
2022-08-04T04:19:00.700Z,0.20
2022-08-04T04:21:52.039Z,0.20
2022-08-04T04:24:52.920Z,0.20
2022-08-04T04:28:44.993Z,0.30
2022-08-04T04:31:21.178Z,0.20
2022-08-04T04:34:09.776Z,0.32
2022-08-04T04:37:10.854Z,0.20
2022-08-04T04:40:03.542Z,0.82
2022-08-04T04:42:59.290Z,0.20
2022-08-04T04:46:00.571Z,0.20
2022-08-04T04:48:51.622Z,0.30
2022-08-04T04:51:43.402Z,0.20
2022-08-04T04:54:38.867Z,0.20
2022-08-04T04:57:11.841Z,0.20
2022-08-04T04:59:57.153Z,0.20
2022-08-04T05:02:50.329Z,0.10
2022-08-04T05:06:15.141Z,0.13
2022-08-04T05:09:25.475Z,0.20
2022-08-04T05:14:22.838Z,0.60
2022-08-04T05:15:07.971Z,1.10
2022-08-04T05:17:40.419Z,0.17
2022-08-04T05:20:22.127Z,0.20
2022-08-04T05:23:01.625Z,0.20
2022-08-04T05:25:58.474Z,0.20
2022-08-04T05:28:36.596Z,0.20
2022-08-04T05:31:14.300Z,0.20
2022-08-04T05:33:54.722Z,0.20
2022-08-04T05:36:41.047Z,0.63
2022-08-04T05:39:15.799Z,0.20
2022-08-04T05:41:47.832Z,0.50
2022-08-04T05:44:23.731Z,0.20
2022-08-04T05:46:56.330Z,0.22
2022-08-04T05:49:29.755Z,0.20
2022-08-04T05:52:01.351Z,0.17
2022-08-04T05:54:31.066Z,0.30
2022-08-04T05:56:59.154Z,0.20
2022-08-04T05:59:27.896Z,0.20
2022-08-04T06:01:58.259Z,0.20
2022-08-04T06:04:37.539Z,0.22
2022-08-04T06:07:05.307Z,0.20
2022-08-04T06:09:32.572Z,0.20
2022-08-04T06:12:04.964Z,0.20
2022-08-04T06:14:38.068Z,0.20
2022-08-04T06:17:52.117Z,0.20
2022-08-04T06:20:00.032Z,0.20
2022-08-04T06:22:34.443Z,0.20
2022-08-04T06:25:03.992Z,0.20
2022-08-04T06:27:33.371Z,0.20
2022-08-04T06:30:02.708Z,0.20
2022-08-04T06:32:41.663Z,0.20
2022-08-04T06:35:10.028Z,0.20
2022-08-04T06:37:42.086Z,0.20
2022-08-04T06:40:30.869Z,0.20
2022-08-04T06:43:05.198Z,0.85
2022-08-04T06:45:36.180Z,0.20
2022-08-04T06:48:05.623Z,0.10
2022-08-04T06:51:27.841Z,0.20
2022-08-04T06:53:26.269Z,0.20
2022-08-04T06:55:54.583Z,0.30
2022-08-04T06:58:23.291Z,0.30
2022-08-04T07:00:52.007Z,0.20
2022-08-04T07:03:19.816Z,0.20
2022-08-04T07:05:52.017Z,0.20
2022-08-04T07:08:20.006Z,0.20
2022-08-04T07:10:49.530Z,0.20
2022-08-04T07:13:16.936Z,0.30
2022-08-04T07:15:45.897Z,0.65
2022-08-04T07:18:12.845Z,0.20
2022-08-04T07:20:47.318Z,0.25
2022-08-04T07:23:21.297Z,0.30
2022-08-04T07:26:11.253Z,0.20
2022-08-04T07:28:41.737Z,0.20
2022-08-04T07:31:32.913Z,0.20
2022-08-04T07:34:16.901Z,0.20
2022-08-04T07:36:55.192Z,0.20
2022-08-04T07:39:27.970Z,0.20
2022-08-04T07:41:58.677Z,0.20
2022-08-04T07:44:25.586Z,0.30
2022-08-04T07:46:52.973Z,0.30
2022-08-04T07:49:55.216Z,0.20
2022-08-04T07:52:08.106Z,0.30
2022-08-04T07:54:35.948Z,0.25
2022-08-04T07:57:03.882Z,0.20
2022-08-04T07:59:30.927Z,0.30
2022-08-04T08:02:01.266Z,0.20
2022-08-04T08:04:30.054Z,0.20
2022-08-04T08:06:58.864Z,0.50
2022-08-04T08:09:25.699Z,0.20
2022-08-04T08:12:35.371Z,0.20
2022-08-04T08:14:41.358Z,0.20
2022-08-04T08:17:08.271Z,0.20
2022-08-04T08:19:36.256Z,0.20
2022-08-04T08:22:04.261Z,0.20
2022-08-04T08:24:36.068Z,0.20
2022-08-04T08:27:04.787Z,0.20
2022-08-04T08:29:34.962Z,0.20
2022-08-04T08:32:08.273Z,0.20
2022-08-04T08:34:37.800Z,0.30
2022-08-04T08:37:33.694Z,0.30
2022-08-04T08:40:40.111Z,0.20
2022-08-04T08:44:07.203Z,0.20
2022-08-04T08:46:48.815Z,0.30
2022-08-04T08:50:04.120Z,0.40
2022-08-04T08:53:01.104Z,0.30
2022-08-04T08:55:49.520Z,0.20
2022-08-04T08:58:34.855Z,0.32
2022-08-04T09:01:50.342Z,0.20
2022-08-04T09:04:40.180Z,0.30
2022-08-04T09:07:43.552Z,0.30
2022-08-04T09:10:20.712Z,0.30
2022-08-04T09:12:54.061Z,0.22
2022-08-04T09:15:38.864Z,0.20
2022-08-04T09:18:28.211Z,0.68
2022-08-04T09:21:16.993Z,0.30
2022-08-04T09:24:35.568Z,0.30
2022-08-04T09:27:21.240Z,0.30
2022-08-04T09:30:10.908Z,0.20
2022-08-04T09:33:04.626Z,0.30
2022-08-04T09:36:06.920Z,0.50
2022-08-04T09:38:52.642Z,0.43
2022-08-04T09:41:56.875Z,0.30
2022-08-04T09:45:07.782Z,0.28
2022-08-04T09:47:58.112Z,0.20
2022-08-04T09:50:38.588Z,0.32
2022-08-04T09:53:49.955Z,0.30
2022-08-04T09:56:54.058Z,0.30
2022-08-04T09:59:58.754Z,0.20
2022-08-04T10:02:32.098Z,0.30
2022-08-04T10:05:04.251Z,0.75
2022-08-04T10:07:59.523Z,0.30
2022-08-04T10:11:09.871Z,0.30
2022-08-04T10:13:52.816Z,0.30
2022-08-04T10:16:47.500Z,0.30
2022-08-04T10:19:28.678Z,0.47
2022-08-04T10:22:30.044Z,0.30
2022-08-04T10:25:44.446Z,0.28
2022-08-04T10:28:06.502Z,0.30
2022-08-04T10:30:37.169Z,0.30
2022-08-04T10:33:39.441Z,0.30
2022-08-04T10:36:18.563Z,0.30
2022-08-04T10:39:13.934Z,0.30
2022-08-04T10:42:17.109Z,0.30
2022-08-04T10:45:20.027Z,0.25
2022-08-04T10:48:13.959Z,0.30
2022-08-04T10:50:55.423Z,0.30
2022-08-04T10:53:25.754Z,0.52
2022-08-04T10:56:30.100Z,0.30
2022-08-04T10:59:10.670Z,0.30
2022-08-04T11:02:00.008Z,0.40
2022-08-04T11:04:45.304Z,0.30
2022-08-04T11:07:13.704Z,0.50
2022-08-04T11:09:42.995Z,0.20
2022-08-04T11:12:26.097Z,0.30
2022-08-04T11:15:07.387Z,0.63
2022-08-04T11:18:17.059Z,0.30
2022-08-04T11:21:02.450Z,0.30
2022-08-04T11:23:35.087Z,0.47
2022-08-04T11:26:24.741Z,0.30
2022-08-04T11:29:18.292Z,0.70
2022-08-04T11:31:51.874Z,0.30
2022-08-04T11:34:27.538Z,0.30
2022-08-04T11:37:50.414Z,0.35
2022-08-04T11:40:24.927Z,0.50
2022-08-04T11:43:06.502Z,0.50
2022-08-04T11:46:00.592Z,0.65
2022-08-04T11:48:41.813Z,0.80
2022-08-04T11:51:09.393Z,0.70
2022-08-04T11:53:39.916Z,0.93
2022-08-04T11:56:13.602Z,0.93
2022-08-04T11:59:01.015Z,1.08
2022-08-04T12:01:27.871Z,1.25
2022-08-04T12:04:15.810Z,1.30
2022-08-04T12:07:21.776Z,1.63
2022-08-04T12:10:15.245Z,1.77
2022-08-04T12:13:46.619Z,2.15
2022-08-04T12:16:18.615Z,1.40
2022-08-04T12:19:07.861Z,1.58
2022-08-04T12:21:50.308Z,1.70
2022-08-04T12:24:44.219Z,1.58
2022-08-04T12:27:33.506Z,1.58
2022-08-04T12:30:57.178Z,1.15
2022-08-04T12:33:01.325Z,1.02
2022-08-04T12:35:38.663Z,1.02
2022-08-04T12:38:29.267Z,0.85
2022-08-04T12:40:58.507Z,0.80
2022-08-04T12:43:35.380Z,0.80
2022-08-04T12:46:06.921Z,0.65
2022-08-04T12:48:37.629Z,0.70
2022-08-04T12:52:06.178Z,0.70
2022-08-04T12:53:57.202Z,0.57
2022-08-04T12:56:28.542Z,0.60
2022-08-04T12:59:05.555Z,0.88
2022-08-04T13:02:08.013Z,0.95
2022-08-04T13:04:28.897Z,0.47
2022-08-04T13:07:09.716Z,0.70
2022-08-04T13:09:38.078Z,0.47
2022-08-04T13:12:18.969Z,0.45
2022-08-04T13:14:52.892Z,0.40
2022-08-04T13:17:20.507Z,0.47
2022-08-04T13:19:55.063Z,0.50
2022-08-04T13:22:30.374Z,0.68
2022-08-04T13:26:40.554Z,0.40
2022-08-04T13:27:55.504Z,0.40
2022-08-04T13:30:26.993Z,0.40
2022-08-04T13:33:01.412Z,0.40
2022-08-04T13:35:56.018Z,0.40
2022-08-04T13:38:24.001Z,0.40
2022-08-04T13:40:52.653Z,0.43
2022-08-04T13:44:15.534Z,0.40
2022-08-04T13:46:50.718Z,0.32
2022-08-04T13:49:54.116Z,0.40
2022-08-04T13:52:12.082Z,0.40
2022-08-04T13:54:45.302Z,0.40
2022-08-04T13:57:27.262Z,0.50
2022-08-04T14:00:02.241Z,0.43
2022-08-04T14:02:50.512Z,0.50
2022-08-04T14:05:28.782Z,0.40
2022-08-04T14:08:09.322Z,0.30
2022-08-04T14:10:36.977Z,0.40
2022-08-04T14:13:05.746Z,0.30
2022-08-04T14:16:02.046Z,0.40
2022-08-04T14:18:32.666Z,0.35
2022-08-04T14:21:08.232Z,0.60
2022-08-04T14:23:56.786Z,0.40
2022-08-04T14:26:33.543Z,0.40
2022-08-04T14:29:27.845Z,0.32
2022-08-04T14:32:22.836Z,0.40
2022-08-04T14:34:52.837Z,0.40
2022-08-04T14:37:22.370Z,0.40
2022-08-04T14:40:08.661Z,0.35
2022-08-04T14:42:54.577Z,0.30
2022-08-04T14:45:54.703Z,0.45
2022-08-04T14:48:22.322Z,0.32
2022-08-04T14:50:50.595Z,0.38
2022-08-04T14:53:30.871Z,0.30
2022-08-04T14:56:00.041Z,1.38
2022-08-04T14:58:38.845Z,0.40
2022-08-04T15:01:12.770Z,0.32
2022-08-04T15:03:49.650Z,0.40
2022-08-04T15:06:23.453Z,0.40
2022-08-04T15:08:52.291Z,0.35
2022-08-04T15:11:23.519Z,0.40
2022-08-04T15:13:55.545Z,0.40
2022-08-04T15:16:26.154Z,0.40
2022-08-04T15:18:54.742Z,0.50
2022-08-04T15:21:25.901Z,0.47
2022-08-04T15:23:53.005Z,0.40
2022-08-04T15:26:49.555Z,0.30
2022-08-04T15:29:26.398Z,0.40
2022-08-04T15:32:06.307Z,0.30
2022-08-04T15:34:51.467Z,0.40
2022-08-04T15:37:28.766Z,0.30
2022-08-04T15:40:07.454Z,0.40
2022-08-04T15:42:46.448Z,0.30
2022-08-04T15:45:23.648Z,0.40
2022-08-04T15:48:23.278Z,0.40
2022-08-04T15:50:56.114Z,0.30
2022-08-04T15:53:23.238Z,0.32
2022-08-04T15:56:27.824Z,0.40
2022-08-04T15:58:55.623Z,0.30
2022-08-04T16:01:23.321Z,0.30
2022-08-04T16:03:58.640Z,0.30
2022-08-04T16:06:29.533Z,0.40
2022-08-04T16:09:02.218Z,0.50
2022-08-04T16:11:31.654Z,0.40
2022-08-04T16:13:58.981Z,0.30
2022-08-04T16:16:47.928Z,0.38
2022-08-04T16:19:35.306Z,0.85
2022-08-04T16:22:04.466Z,0.40
2022-08-04T16:24:40.670Z,0.40
2022-08-04T16:27:09.867Z,0.75
2022-08-04T16:29:47.868Z,0.40
2022-08-04T16:32:22.624Z,0.32
2022-08-04T16:35:04.143Z,0.32
2022-08-04T16:37:39.007Z,0.40
2022-08-04T16:40:36.956Z,0.85
2022-08-04T16:43:18.351Z,0.43
2022-08-04T16:46:03.621Z,0.60
2022-08-04T16:48:35.815Z,0.30
2022-08-04T16:51:09.758Z,0.40
2022-08-04T16:54:03.710Z,0.40
2022-08-04T16:56:34.799Z,0.40
2022-08-04T16:59:11.090Z,0.40
2022-08-04T17:01:49.005Z,0.40
2022-08-04T17:04:16.414Z,0.40
2022-08-04T17:06:46.508Z,0.40
2022-08-04T17:09:19.525Z,0.30
2022-08-04T17:11:48.264Z,0.30
2022-08-04T17:14:23.401Z,0.40
2022-08-04T17:16:51.087Z,0.40
2022-08-04T17:19:23.932Z,0.50
2022-08-04T17:22:06.017Z,0.30
2022-08-04T17:24:40.429Z,0.40
2022-08-04T17:28:20.070Z,0.40
2022-08-04T17:29:54.484Z,0.52
2022-08-04T17:32:23.305Z,0.30
2022-08-04T17:34:57.288Z,0.70
2022-08-04T17:37:40.253Z,0.40
2022-08-04T17:40:18.467Z,0.30
2022-08-04T17:46:28.526Z,0.40
2022-08-04T17:49:20.866Z,0.77
2022-08-04T17:52:04.862Z,0.40
2022-08-04T17:54:39.539Z,0.40
2022-08-04T17:57:19.967Z,0.47
2022-08-04T18:00:04.447Z,0.30
2022-08-04T18:02:35.035Z,0.30
2022-08-04T18:05:06.381Z,0.75
2022-08-04T18:08:38.802Z,0.40
2022-08-04T18:13:31.265Z,0.30
2022-08-04T18:16:21.991Z,0.30
2022-08-04T18:19:14.572Z,0.30
2022-08-04T18:21:46.463Z,0.50
2022-08-04T18:24:28.555Z,0.28
2022-08-04T18:27:06.671Z,0.50
2022-08-04T18:29:39.056Z,0.30
2022-08-04T18:32:09.123Z,0.65
2022-08-04T18:34:40.914Z,0.30
2022-08-04T18:38:05.297Z,0.30
2022-08-04T18:40:28.085Z,0.30
2022-08-04T18:42:57.818Z,0.22
2022-08-04T18:45:34.479Z,0.40
2022-08-04T18:48:14.482Z,0.50
2022-08-04T18:51:09.646Z,0.28
2022-08-04T18:53:35.081Z,0.30
2022-08-04T18:56:06.396Z,0.50
2022-08-04T18:58:47.242Z,0.43
2022-08-04T19:01:15.424Z,0.30
2022-08-04T19:03:44.641Z,0.30
2022-08-04T19:06:12.499Z,0.30
2022-08-04T19:08:42.293Z,0.30
2022-08-04T19:11:38.394Z,0.70
2022-08-04T19:13:58.473Z,0.30
2022-08-04T19:16:28.411Z,0.40
2022-08-04T19:19:00.338Z,0.60
2022-08-04T19:22:00.537Z,0.50
2022-08-04T19:24:32.724Z,0.30
2022-08-04T19:27:06.793Z,0.30
2022-08-04T19:29:37.951Z,0.40
2022-08-04T19:32:13.800Z,0.30
2022-08-04T19:34:45.805Z,0.40
2022-08-04T19:38:01.400Z,0.28
2022-08-04T19:40:09.617Z,0.68
2022-08-04T19:42:37.019Z,0.30
2022-08-04T19:45:05.600Z,0.30
2022-08-04T19:48:16.168Z,0.45
2022-08-04T19:50:19.635Z,0.30
2022-08-04T19:52:51.904Z,0.50
2022-08-04T19:55:22.943Z,0.30
2022-08-04T19:58:08.922Z,1.02
2022-08-04T20:00:39.104Z,0.40
2022-08-04T20:03:11.346Z,0.35
2022-08-04T20:08:28.491Z,0.50
2022-08-04T20:10:57.769Z,0.40
2022-08-04T20:13:37.427Z,0.50
2022-08-04T20:16:29.676Z,0.30
2022-08-04T20:19:08.092Z,0.30
2022-08-04T20:21:55.389Z,0.30
2022-08-04T20:24:40.155Z,0.30
2022-08-04T20:27:17.379Z,0.40
2022-08-04T20:29:51.161Z,0.30
2022-08-04T20:32:27.302Z,0.30
2022-08-04T20:34:56.693Z,0.30
2022-08-04T20:37:56.985Z,0.30
2022-08-04T20:40:22.974Z,0.35
2022-08-04T20:42:54.219Z,0.30
2022-08-04T20:48:12.149Z,0.45
2022-08-04T20:50:39.517Z,0.30
2022-08-04T20:53:17.104Z,0.30
2022-08-04T20:55:55.255Z,0.30
2022-08-04T21:01:13.234Z,0.40
2022-08-04T21:04:00.969Z,0.30
2022-08-04T21:06:28.086Z,0.77
2022-08-04T21:08:57.264Z,0.60
2022-08-04T21:11:24.912Z,0.30
2022-08-04T21:14:00.116Z,0.30
2022-08-04T21:16:55.187Z,0.82
2022-08-04T21:19:14.160Z,0.60
2022-08-04T21:21:42.485Z,0.30
2022-08-04T21:24:09.779Z,0.20
2022-08-04T21:26:37.560Z,0.30
2022-08-04T21:29:05.905Z,0.30
2022-08-04T21:31:50.052Z,0.68
2022-08-04T21:34:38.995Z,0.30
2022-08-04T21:37:04.555Z,0.45
2022-08-04T21:39:32.740Z,0.30
2022-08-04T21:42:28.152Z,0.30
2022-08-04T21:44:58.089Z,0.30
2022-08-04T21:47:25.145Z,0.30
2022-08-04T21:49:55.892Z,0.30
2022-08-04T21:52:23.026Z,0.30
2022-08-04T21:54:54.456Z,0.30
2022-08-04T21:57:22.592Z,0.60
2022-08-04T21:59:52.119Z,0.40
2022-08-04T22:02:19.040Z,0.40
2022-08-04T22:04:48.166Z,0.30
2022-08-04T22:07:22.989Z,0.40
2022-08-04T22:10:02.364Z,0.55
2022-08-04T22:12:30.486Z,0.30
2022-08-04T22:15:00.767Z,0.30
2022-08-04T22:17:35.261Z,0.30
2022-08-04T22:20:03.632Z,0.20
2022-08-04T22:22:35.150Z,0.30
2022-08-04T22:28:00.932Z,0.30
2022-08-04T22:30:36.414Z,0.30
2022-08-04T22:33:07.742Z,0.20
2022-08-04T22:35:49.457Z,0.30
2022-08-04T22:38:24.182Z,0.22
2022-08-04T22:41:01.623Z,0.30
2022-08-04T22:43:31.750Z,0.30
2022-08-04T22:46:06.388Z,0.30
2022-08-04T22:48:38.597Z,0.30
2022-08-04T22:51:07.471Z,0.30
2022-08-04T22:53:35.864Z,0.38
2022-08-04T22:56:09.278Z,0.30
2022-08-04T22:58:45.311Z,0.20
2022-08-04T23:01:18.056Z,0.30
2022-08-04T23:03:51.141Z,0.30
2022-08-04T23:06:24.210Z,0.20
2022-08-04T23:08:51.910Z,0.20
2022-08-04T23:11:18.787Z,0.20
2022-08-04T23:13:45.645Z,0.32
2022-08-04T23:16:14.150Z,0.40
2022-08-04T23:18:42.379Z,0.30
2022-08-04T23:21:15.272Z,0.20
2022-08-04T23:23:45.636Z,0.30
2022-08-04T23:26:27.708Z,0.30
2022-08-04T23:28:58.160Z,0.20
2022-08-04T23:31:36.647Z,0.30
2022-08-04T23:34:08.587Z,0.30
2022-08-04T23:36:35.459Z,0.30
2022-08-04T23:39:06.212Z,0.20
2022-08-04T23:41:53.348Z,0.30
2022-08-04T23:44:24.838Z,0.22
2022-08-04T23:47:01.182Z,0.20
2022-08-04T23:49:43.606Z,0.38
2022-08-04T23:52:27.593Z,0.30
2022-08-04T23:54:58.221Z,0.20
2022-08-04T23:58:02.409Z,0.30
